Time;durP1;ratioP1;P1;durP2;ratioP2;P2;SDS_P1;SDS_P2;PMS_P1;PMS_P2;Temp;Humidity;BMP_temperature;BMP_pressure;BME280_temperature;BME280_humidity;BME280_pressure;Samples;Min_cycle;Max_cycle;Signal;HPM_P1;HPM_P2
2023/08/20 00:00:58;;;;;;;11.20;3.43;;;22.00;12.30;;;;;;4936655;29;20359;-87
2023/08/20 00:03:25;;;;;;;10.87;3.23;;;22.00;10.50;;;;;;4918265;29;20183;-86
2023/08/20 00:05:53;;;;;;;12.40;3.17;;;22.00;11.10;;;;;;4919841;29;20184;-84
2023/08/20 00:08:18;;;;;;;13.07;3.63;;;22.00;9.50;;;;;;4904798;29;20649;-86
2023/08/20 00:10:44;;;;;;;10.00;3.33;;;22.00;8.90;;;;;;4918489;29;20240;-86
2023/08/20 00:13:10;;;;;;;9.37;3.10;;;21.80;12.50;;;;;;4918002;29;20196;-86
2023/08/20 00:15:36;;;;;;;12.77;3.17;;;21.60;15.90;;;;;;4919241;29;20185;-88
2023/08/20 00:18:02;;;;;;;9.00;2.97;;;21.60;17.70;;;;;;4920365;29;20207;-88
2023/08/20 00:20:28;;;;;;;10.10;3.20;;;21.70;16.30;;;;;;4936436;29;20276;-87
2023/08/20 00:22:54;;;;;;;13.03;5.90;;;21.80;11.80;;;;;;4918723;29;20181;-88
2023/08/20 00:25:20;;;;;;;10.70;3.20;;;22.00;7.30;;;;;;4911856;29;20256;-88
2023/08/20 00:27:46;;;;;;;11.00;3.07;;;22.00;6.40;;;;;;4900662;29;20646;-87
2023/08/20 00:30:12;;;;;;;11.97;3.70;;;22.00;4.40;;;;;;4900677;29;20213;-89
2023/08/20 00:32:38;;;;;;;10.17;3.63;;;21.80;10.20;;;;;;4918204;29;20212;-87
2023/08/20 00:35:04;;;;;;;12.90;4.07;;;21.70;13.40;;;;;;4915935;29;20184;-87
2023/08/20 00:37:30;;;;;;;11.43;3.80;;;21.80;15.80;;;;;;4920418;29;20187;-86
2023/08/20 00:39:57;;;;;;;11.40;4.00;;;21.90;11.10;;;;;;4921750;29;20271;-87
2023/08/20 00:42:25;;;;;;;12.33;3.93;;;22.00;11.40;;;;;;4919185;29;20180;-88
2023/08/20 00:44:54;;;;;;;11.40;3.93;;;22.00;10.20;;;;;;4920142;29;20180;-87
2023/08/20 00:47:20;;;;;;;13.03;3.90;;;22.10;7.80;;;;;;4918123;29;20189;-87
2023/08/20 00:49:47;;;;;;;14.27;4.07;;;22.30;5.70;;;;;;4920267;29;20181;-87
2023/08/20 00:52:14;;;;;;;11.03;3.57;;;22.40;4.40;;;;;;4920610;29;20181;-86
2023/08/20 00:54:41;;;;;;;12.03;4.07;;;22.50;3.70;;;;;;4922721;29;20179;-85
2023/08/20 00:57:08;;;;;;;10.63;3.60;;;22.50;1.00;;;;;;4923051;29;20268;-87
2023/08/20 00:59:34;;;;;;;11.90;3.83;;;22.60;1.00;;;;;;4937034;29;20209;-86
2023/08/20 01:02:00;;;;;;;11.73;3.60;;;22.50;1.00;;;;;;4943136;29;20185;-86
2023/08/20 01:04:29;;;;;;;11.00;3.63;;;22.40;1.00;;;;;;4943162;29;20208;-86
2023/08/20 01:07:05;;;;;;;11.10;3.30;;;22.20;1.00;;;;;;4938569;29;20217;-86
2023/08/20 01:10:12;;;;;;;11.63;3.17;;;22.20;1.00;;;;;;4938728;29;20208;-87
2023/08/20 01:12:39;;;;;;;11.60;3.47;;;22.30;1.00;;;;;;4949009;29;20180;-86
2023/08/20 01:15:05;;;;;;;9.83;3.67;;;22.10;1.00;;;;;;4929663;29;20200;-87
2023/08/20 01:17:31;;;;;;;9.77;3.23;;;22.10;1.00;;;;;;4933390;29;20216;-86
2023/08/20 01:19:57;;;;;;;9.93;2.93;;;22.00;1.00;;;;;;4932837;29;20220;-86
2023/08/20 01:22:43;;;;;;;9.43;2.97;;;22.00;1.00;;;;;;4932503;29;20179;-87
2023/08/20 01:25:17;;;;;;;10.43;3.20;;;22.10;1.00;;;;;;4948152;29;20204;-86
2023/08/20 01:28:08;;;;;;;7.57;2.93;;;22.20;1.00;;;;;;4931060;29;20517;-86
2023/08/20 01:30:35;;;;;;;9.07;3.17;;;22.20;1.00;;;;;;4927082;29;20169;-86
2023/08/20 01:33:02;;;;;;;10.90;3.33;;;22.20;1.00;;;;;;4929381;29;20187;-86
2023/08/20 01:35:28;;;;;;;10.77;3.20;;;22.20;1.00;;;;;;4933335;29;20199;-85
2023/08/20 01:37:54;;;;;;;8.30;3.17;;;22.30;1.00;;;;;;4928154;29;20684;-85
2023/08/20 01:40:19;;;;;;;10.70;2.93;;;22.40;1.00;;;;;;4928856;29;20209;-86
2023/08/20 01:42:45;;;;;;;10.97;3.23;;;22.50;1.00;;;;;;4929067;29;20176;-86
2023/08/20 01:45:11;;;;;;;11.30;3.10;;;22.60;1.00;;;;;;4924605;29;20264;-85
2023/08/20 01:47:37;;;;;;;8.20;2.63;;;22.60;1.00;;;;;;4924233;29;20712;-86
2023/08/20 01:50:02;;;;;;;9.30;3.07;;;22.60;1.00;;;;;;4923276;29;20697;-85
2023/08/20 01:52:29;;;;;;;11.70;3.03;;;22.60;1.00;;;;;;4924537;29;20601;-86
2023/08/20 01:54:55;;;;;;;14.17;3.03;;;22.40;1.00;;;;;;4941845;29;20264;-86
2023/08/20 01:57:21;;;;;;;11.67;3.60;;;22.50;1.00;;;;;;4924466;29;20176;-85
2023/08/20 01:59:47;;;;;;;9.73;2.70;;;22.50;1.00;;;;;;4924359;29;20225;-85
2023/08/20 02:02:13;;;;;;;11.50;3.17;;;22.50;1.00;;;;;;4941784;29;20169;-86
2023/08/20 02:04:39;;;;;;;8.73;2.73;;;22.50;1.00;;;;;;4924345;29;20630;-84
2023/08/20 02:07:06;;;;;;;9.50;2.77;;;22.60;1.00;;;;;;4923577;29;20275;-87
2023/08/20 02:09:31;;;;;;;9.63;2.83;;;22.50;1.00;;;;;;4923356;29;20196;-87
2023/08/20 02:11:57;;;;;;;10.30;2.97;;;22.50;1.00;;;;;;4923219;29;20181;-85
2023/08/20 02:14:23;;;;;;;8.83;2.50;;;22.50;1.00;;;;;;4925730;29;20234;-86
2023/08/20 02:16:48;;;;;;;9.43;2.97;;;22.50;1.00;;;;;;4923834;29;20242;-86
2023/08/20 02:19:14;;;;;;;10.50;3.10;;;22.50;1.00;;;;;;4922510;29;20618;-86
2023/08/20 02:21:40;;;;;;;10.80;3.27;;;22.50;1.00;;;;;;4921451;29;20199;-88
2023/08/20 02:24:06;;;;;;;7.63;2.57;;;22.50;1.00;;;;;;4923653;29;20192;-86
2023/08/20 02:26:32;;;;;;;9.53;2.83;;;22.40;1.00;;;;;;4924227;29;20184;-86
2023/08/20 02:28:57;;;;;;;13.20;2.90;;;22.40;1.00;;;;;;4923579;29;20189;-85
2023/08/20 02:31:24;;;;;;;11.10;3.20;;;22.50;1.00;;;;;;4925466;29;20180;-87
2023/08/20 02:33:50;;;;;;;10.33;3.60;;;22.50;1.00;;;;;;4921953;29;20726;-86
2023/08/20 02:36:16;;;;;;;9.60;3.20;;;22.40;1.00;;;;;;4923721;29;20176;-86
2023/08/20 02:38:41;;;;;;;10.70;3.50;;;22.30;1.00;;;;;;4923328;29;20561;-86
2023/08/20 02:41:07;;;;;;;11.90;3.90;;;22.20;1.00;;;;;;4921150;29;20574;-85
2023/08/20 02:43:33;;;;;;;14.43;3.87;;;22.10;2.00;;;;;;4921833;29;20176;-86
2023/08/20 02:45:58;;;;;;;10.97;3.97;;;22.00;10.60;;;;;;4921922;29;20552;-86
2023/08/20 02:48:27;;;;;;;10.13;4.63;;;21.90;15.50;;;;;;4938856;29;20176;-86
2023/08/20 02:50:56;;;;;;;13.00;4.63;;;22.10;16.30;;;;;;4924778;29;20204;-85
2023/08/20 02:53:22;;;;;;;11.67;4.80;;;22.10;16.80;;;;;;4939074;29;20184;-85
2023/08/20 02:55:48;;;;;;;9.67;3.67;;;22.30;16.40;;;;;;4922523;29;20295;-86
2023/08/20 02:58:14;;;;;;;10.27;3.60;;;22.20;18.20;;;;;;4921047;29;20184;-86
2023/08/20 03:00:40;;;;;;;15.27;3.73;;;22.10;20.60;;;;;;4919764;29;20212;-86
2023/08/20 03:03:09;;;;;;;12.40;4.30;;;22.00;22.60;;;;;;4921267;29;20509;-86
2023/08/20 03:05:35;;;;;;;18.80;4.50;;;21.90;26.10;;;;;;4920408;29;20612;-86
2023/08/20 03:08:03;;;;;;;12.90;4.07;;;22.00;25.90;;;;;;4920384;29;20181;-86
2023/08/20 03:10:31;;;;;;;12.47;4.20;;;21.90;26.90;;;;;;4921016;29;20185;-86
2023/08/20 03:12:57;;;;;;;12.53;3.90;;;21.80;29.90;;;;;;4920231;29;20200;-86
2023/08/20 03:15:23;;;;;;;11.97;4.50;;;21.70;34.20;;;;;;4919420;29;20633;-86
2023/08/20 03:17:48;;;;;;;10.47;4.13;;;21.60;38.10;;;;;;4919383;29;20228;-86
2023/08/20 03:20:14;;;;;;;13.33;4.27;;;21.50;41.00;;;;;;4920017;29;20205;-86
2023/08/20 03:22:40;;;;;;;12.90;4.37;;;21.50;43.40;;;;;;4919773;29;20523;-87
2023/08/20 03:25:06;;;;;;;13.07;4.20;;;21.50;45.30;;;;;;4920599;29;20633;-86
2023/08/20 03:27:32;;;;;;;9.33;3.93;;;21.50;46.20;;;;;;4920355;29;20173;-87
2023/08/20 03:29:58;;;;;;;12.03;3.73;;;21.30;50.80;;;;;;4918840;29;20761;-86
2023/08/20 03:32:24;;;;;;;13.97;5.13;;;21.20;53.90;;;;;;4920275;29;20179;-86
2023/08/20 03:34:50;;;;;;;15.43;4.57;;;21.20;56.00;;;;;;4920557;29;20172;-87
2023/08/20 03:37:16;;;;;;;12.67;4.63;;;21.10;58.20;;;;;;4938096;29;20197;-87
2023/08/20 03:39:42;;;;;;;12.17;4.70;;;21.20;59.70;;;;;;4918738;29;20211;-86
2023/08/20 03:42:08;;;;;;;12.80;4.60;;;21.20;59.30;;;;;;4919882;29;20183;-86
2023/08/20 03:44:33;;;;;;;11.37;4.30;;;21.20;61.40;;;;;;4919570;29;20183;-86
2023/08/20 03:46:59;;;;;;;12.70;4.53;;;21.10;60.50;;;;;;4918516;29;20273;-86
2023/08/20 03:49:25;;;;;;;10.90;4.50;;;21.00;65.10;;;;;;4937240;29;20227;-88
2023/08/20 03:51:50;;;;;;;13.13;4.83;;;21.00;65.20;;;;;;4918808;29;20612;-87
2023/08/20 03:54:16;;;;;;;11.87;5.10;;;21.10;63.90;;;;;;4919240;29;20280;-86
2023/08/20 03:56:42;;;;;;;12.30;4.90;;;21.20;60.80;;;;;;4919625;29;20177;-86
2023/08/20 03:59:08;;;;;;;11.70;4.70;;;21.30;55.00;;;;;;4918209;29;20166;-86
2023/08/20 04:01:36;;;;;;;12.30;5.03;;;21.30;54.10;;;;;;4919072;29;20227;-86
2023/08/20 04:04:03;;;;;;;15.87;5.20;;;21.30;53.10;;;;;;4919325;29;20172;-85
2023/08/20 04:06:29;;;;;;;11.60;5.03;;;21.30;55.70;;;;;;4918927;29;20195;-86
2023/08/20 04:08:54;;;;;;;11.93;4.63;;;21.30;53.20;;;;;;4919103;29;20287;-86
2023/08/20 04:11:20;;;;;;;13.07;5.00;;;21.40;53.30;;;;;;4919723;29;20203;-86
2023/08/20 04:13:46;;;;;;;10.70;5.30;;;21.30;53.10;;;;;;4918960;29;20176;-86
2023/08/20 04:16:11;;;;;;;13.17;4.77;;;21.10;55.60;;;;;;4918889;29;20212;-86
2023/08/20 04:18:37;;;;;;;11.80;4.87;;;21.10;58.00;;;;;;4919666;29;20198;-86
2023/08/20 04:21:03;;;;;;;15.17;4.93;;;21.10;59.70;;;;;;4918554;29;20211;-86
2023/08/20 04:23:28;;;;;;;13.40;4.77;;;21.10;60.40;;;;;;4919521;29;20274;-86
2023/08/20 04:25:54;;;;;;;9.03;4.13;;;21.00;64.80;;;;;;4919470;29;20177;-85
2023/08/20 04:28:19;;;;;;;14.33;4.47;;;21.00;67.20;;;;;;4917703;29;20665;-86
2023/08/20 04:30:45;;;;;;;12.77;4.67;;;21.00;69.80;;;;;;4919090;29;20175;-86
2023/08/20 04:33:11;;;;;;;10.93;4.23;;;20.90;70.60;;;;;;4916931;29;20184;-86
2023/08/20 04:35:36;;;;;;;14.50;4.40;;;20.90;71.80;;;;;;4917983;29;20201;-85
2023/08/20 04:38:03;;;;;;;9.70;3.90;;;20.90;72.10;;;;;;4917863;29;20922;-86
2023/08/20 04:40:28;;;;;;;14.00;4.10;;;21.00;68.10;;;;;;4918995;29;20307;-86
2023/08/20 04:42:54;;;;;;;12.20;4.10;;;21.10;63.00;;;;;;4934303;29;20594;-85
2023/08/20 04:45:20;;;;;;;10.97;4.27;;;21.10;62.00;;;;;;4918851;29;20663;-86
2023/08/20 04:47:46;;;;;;;12.90;4.30;;;21.10;62.70;;;;;;4918894;29;20608;-86
2023/08/20 04:50:13;;;;;;;12.90;4.70;;;21.00;64.00;;;;;;4917468;29;20183;-86
2023/08/20 04:52:39;;;;;;;14.77;4.83;;;21.10;61.10;;;;;;4918390;29;20216;-86
2023/08/20 04:55:09;;;;;;;10.23;4.47;;;21.30;55.60;;;;;;4918858;29;20179;-86
2023/08/20 04:57:34;;;;;;;11.80;4.50;;;21.30;53.20;;;;;;4918048;29;20183;-86
2023/08/20 05:00:01;;;;;;;13.13;4.63;;;21.30;50.80;;;;;;4929966;28;20303;-85
2023/08/20 05:02:26;;;;;;;12.93;4.13;;;21.30;51.20;;;;;;4939595;29;20254;-86
2023/08/20 05:04:55;;;;;;;14.53;3.97;;;21.30;53.10;;;;;;4929309;29;20188;-86
2023/08/20 05:07:23;;;;;;;10.93;4.53;;;21.30;52.60;;;;;;4926052;29;20180;-86
2023/08/20 05:09:50;;;;;;;13.13;4.70;;;21.40;50.60;;;;;;4919618;29;20173;-85
2023/08/20 05:12:19;;;;;;;9.17;4.03;;;21.30;52.10;;;;;;4922786;29;20183;-86
2023/08/20 05:14:45;;;;;;;13.73;4.20;;;21.20;55.00;;;;;;4918188;29;20625;-86
2023/08/20 05:17:10;;;;;;;9.80;3.70;;;21.10;58.20;;;;;;4916787;29;20251;-86
2023/08/20 05:19:36;;;;;;;13.13;4.20;;;21.20;58.20;;;;;;4917811;29;20661;-86
2023/08/20 05:22:02;;;;;;;10.43;3.93;;;21.20;58.60;;;;;;4918555;29;20212;-86
2023/08/20 05:24:28;;;;;;;9.43;4.10;;;21.20;58.60;;;;;;4917943;29;20202;-86
2023/08/20 05:27:14;;;;;;;8.57;3.93;;;21.20;59.10;;;;;;4934980;29;20239;-86
2023/08/20 05:29:39;;;;;;;10.33;4.23;;;21.40;57.60;;;;;;4919141;29;20180;-86
2023/08/20 05:32:08;;;;;;;12.53;4.20;;;21.40;56.10;;;;;;4918378;29;20184;-86
2023/08/20 05:34:34;;;;;;;12.20;4.67;;;21.50;54.20;;;;;;4918478;29;20262;-86
2023/08/20 05:37:00;;;;;;;10.40;4.30;;;21.50;47.00;;;;;;4916869;29;20275;-86
2023/08/20 05:39:26;;;;;;;12.37;4.17;;;21.60;45.60;;;;;;4917136;29;20653;-87
2023/08/20 05:41:55;;;;;;;11.47;4.57;;;21.70;45.80;;;;;;4918533;29;20187;-86
2023/08/20 05:44:21;;;;;;;9.83;4.10;;;21.60;47.30;;;;;;4918885;29;20196;-86
2023/08/20 05:46:47;;;;;;;12.57;4.53;;;21.80;40.90;;;;;;4917686;29;20188;-86
2023/08/20 05:49:16;;;;;;;11.20;3.97;;;21.80;39.60;;;;;;4917946;29;20189;-86
2023/08/20 05:51:43;;;;;;;9.57;4.30;;;21.80;40.00;;;;;;4935833;29;20176;-85
2023/08/20 05:54:09;;;;;;;11.80;3.97;;;21.90;35.90;;;;;;4919089;29;20216;-86
2023/08/20 05:56:35;;;;;;;12.77;4.57;;;22.00;32.50;;;;;;4922121;29;20187;-86
2023/08/20 05:59:00;;;;;;;9.43;3.93;;;22.10;30.10;;;;;;4921094;29;20187;-86
2023/08/20 06:01:26;;;;;;;8.87;3.90;;;22.00;34.80;;;;;;4921315;29;20220;-86
2023/08/20 06:03:52;;;;;;;12.07;4.30;;;21.90;38.20;;;;;;4921461;29;20230;-86
2023/08/20 06:06:17;;;;;;;11.50;4.17;;;22.00;40.70;;;;;;4922080;29;20184;-86
2023/08/20 06:08:44;;;;;;;9.33;4.17;;;22.10;39.30;;;;;;4920769;29;20680;-85
2023/08/20 06:11:10;;;;;;;14.27;4.87;;;22.10;35.10;;;;;;4921809;29;20180;-85
2023/08/20 06:13:36;;;;;;;11.67;4.37;;;22.20;33.60;;;;;;4921564;29;20192;-86
2023/08/20 06:16:01;;;;;;;11.57;4.50;;;22.30;26.20;;;;;;4921040;29;20212;-86
2023/08/20 06:18:27;;;;;;;11.37;4.23;;;22.30;24.70;;;;;;4921903;29;20196;-85
2023/08/20 06:20:52;;;;;;;9.87;4.53;;;22.20;26.90;;;;;;4921547;29;20213;-85
2023/08/20 06:23:18;;;;;;;11.17;3.87;;;22.20;27.60;;;;;;4921663;29;20184;-86
2023/08/20 06:25:44;;;;;;;9.67;3.57;;;22.20;26.20;;;;;;4930776;29;20224;-86
2023/08/20 06:28:09;;;;;;;11.60;4.33;;;22.30;23.10;;;;;;4942593;29;20170;-84
2023/08/20 06:30:35;;;;;;;10.03;4.30;;;22.50;15.50;;;;;;4939145;29;20659;-86
2023/08/20 06:33:01;;;;;;;11.50;4.03;;;22.80;9.30;;;;;;4922439;29;20236;-86
2023/08/20 06:35:27;;;;;;;10.07;3.97;;;22.90;2.50;;;;;;4921502;29;20173;-86
2023/08/20 06:37:53;;;;;;;9.43;4.23;;;22.80;1.00;;;;;;4921199;29;20188;-86
2023/08/20 06:40:18;;;;;;;7.77;3.87;;;23.00;1.00;;;;;;4921547;29;20223;-86
2023/08/20 06:42:44;;;;;;;8.10;3.50;;;23.00;1.00;;;;;;4920296;29;20177;-86
2023/08/20 06:45:10;;;;;;;11.47;4.23;;;22.90;1.00;;;;;;4921995;29;20192;-85
2023/08/20 06:47:36;;;;;;;10.87;3.63;;;22.90;1.00;;;;;;4929601;29;20223;-86
2023/08/20 06:50:02;;;;;;;9.67;3.33;;;23.00;1.00;;;;;;4921619;29;20642;-86
2023/08/20 06:52:28;;;;;;;10.40;3.17;;;23.10;1.00;;;;;;4920080;29;20267;-86
2023/08/20 06:54:54;;;;;;;8.70;3.37;;;23.10;1.00;;;;;;4937348;29;20260;-86
2023/08/20 06:57:19;;;;;;;9.73;3.93;;;23.30;1.00;;;;;;4920773;29;20557;-86
2023/08/20 06:59:45;;;;;;;10.80;4.00;;;23.40;1.00;;;;;;4920680;29;20205;-85
2023/08/20 07:02:11;;;;;;;9.80;3.60;;;23.40;1.00;;;;;;4921048;29;20216;-85
2023/08/20 07:04:37;;;;;;;7.63;2.97;;;23.40;1.00;;;;;;4919510;29;20181;-85
2023/08/20 07:07:06;;;;;;;7.97;3.10;;;23.60;1.00;;;;;;4918799;29;20585;-84
2023/08/20 07:09:32;;;;;;;7.77;2.83;;;23.60;1.00;;;;;;4920242;29;20177;-85
2023/08/20 07:11:57;;;;;;;7.90;2.67;;;23.60;1.00;;;;;;4919828;29;20181;-86
2023/08/20 07:14:23;;;;;;;7.07;3.00;;;23.80;1.00;;;;;;4920786;29;20280;-84
2023/08/20 07:16:49;;;;;;;8.83;2.73;;;23.90;1.00;;;;;;4920451;29;20653;-84
2023/08/20 07:19:14;;;;;;;7.93;2.23;;;24.00;1.00;;;;;;4921753;29;20185;-82
2023/08/20 07:21:40;;;;;;;5.53;1.90;;;24.20;1.00;;;;;;4919538;29;20255;-83
2023/08/20 07:24:08;;;;;;;6.90;2.17;;;24.30;1.00;;;;;;4920765;29;20173;-85
2023/08/20 07:26:34;;;;;;;5.07;1.70;;;24.40;1.00;;;;;;4925447;29;20181;-82
2023/08/20 07:28:59;;;;;;;5.07;1.90;;;24.50;1.00;;;;;;4924803;29;20249;-83
2023/08/20 07:31:32;;;;;;;6.23;1.93;;;24.60;1.00;;;;;;4949247;29;20175;-86
2023/08/20 07:34:00;;;;;;;5.83;1.90;;;24.50;1.00;;;;;;4938672;29;20176;-82
2023/08/20 07:36:26;;;;;;;6.33;2.13;;;24.60;1.00;;;;;;4931987;29;20176;-82
2023/08/20 07:38:53;;;;;;;5.63;1.83;;;24.60;1.00;;;;;;4953328;29;20215;-82
2023/08/20 07:41:19;;;;;;;4.17;1.80;;;24.50;1.00;;;;;;4931650;29;20236;-81
2023/08/20 07:43:46;;;;;;;5.07;2.00;;;24.50;1.00;;;;;;4936433;29;20253;-82
2023/08/20 07:46:12;;;;;;;5.80;2.07;;;24.40;1.00;;;;;;4939505;29;20292;-85
2023/08/20 07:48:39;;;;;;;6.77;2.00;;;24.50;1.00;;;;;;4941970;29;20169;-82
2023/08/20 07:51:06;;;;;;;5.93;1.97;;;24.60;1.00;;;;;;4928033;29;20205;-83
2023/08/20 07:53:33;;;;;;;5.33;1.90;;;24.70;1.00;;;;;;4921561;29;20172;-82
2023/08/20 07:56:01;;;;;;;5.10;1.90;;;24.60;1.00;;;;;;4941081;29;20169;-83
2023/08/20 07:58:28;;;;;;;6.53;1.80;;;24.90;1.00;;;;;;4924377;29;20184;-83
2023/08/20 08:00:54;;;;;;;5.47;2.10;;;25.10;1.00;;;;;;4939873;29;20219;-83
2023/08/20 08:03:19;;;;;;;5.30;2.00;;;25.20;99.90;;;;;;4921960;29;20701;-82
2023/08/20 08:05:49;;;;;;;5.27;1.80;;;25.10;99.90;;;;;;4939349;29;20173;-84
2023/08/20 08:08:16;;;;;;;5.97;2.10;;;24.80;99.90;;;;;;4921657;29;20188;-86
2023/08/20 08:10:44;;;;;;;5.03;2.00;;;24.60;99.90;;;;;;4927815;29;20177;-84
2023/08/20 08:13:14;;;;;;;5.37;1.87;;;24.70;99.90;;;;;;4929350;29;20191;-84
2023/08/20 08:15:41;;;;;;;4.83;1.87;;;25.00;99.90;;;;;;4924905;29;20263;-83
2023/08/20 08:18:08;;;;;;;5.03;2.00;;;24.90;99.90;;;;;;4926047;29;20227;-89
2023/08/20 08:20:34;;;;;;;5.90;1.80;;;25.00;99.90;;;;;;4940993;29;20213;-86
2023/08/20 08:23:01;;;;;;;6.03;2.03;;;25.20;99.90;;;;;;4909640;29;20679;-85
2023/08/20 08:25:28;;;;;;;4.97;1.60;;;25.40;99.90;;;;;;4920731;29;20268;-86
2023/08/20 08:28:05;;;;;;;4.50;2.07;;;25.30;99.90;;;;;;4935736;29;20233;-84
2023/08/20 08:30:31;;;;;;;7.73;2.23;;;25.50;99.90;;;;;;4925341;29;20176;-85
2023/08/20 08:32:59;;;;;;;6.03;2.03;;;25.40;99.90;;;;;;4928304;29;20637;-83
2023/08/20 08:35:25;;;;;;;5.40;1.80;;;25.40;99.90;;;;;;4938752;29;20214;-85
2023/08/20 08:37:51;;;;;;;6.57;1.77;;;25.50;99.90;;;;;;4929185;29;20632;-89
2023/08/20 08:40:17;;;;;;;4.13;1.97;;;25.50;99.90;;;;;;4929657;29;20228;-81
2023/08/20 08:42:47;;;;;;;5.43;1.80;;;25.60;99.90;;;;;;4930242;29;20287;-82
2023/08/20 08:45:15;;;;;;;5.38;1.77;;;25.60;99.90;;;;;;4932169;29;20707;-82
2023/08/20 08:47:41;;;;;;;5.40;1.40;;;25.60;99.90;;;;;;4929480;29;20565;-83
2023/08/20 08:50:08;;;;;;;3.87;1.53;;;25.60;99.90;;;;;;4920768;29;20701;-84
2023/08/20 08:52:37;;;;;;;3.70;1.73;;;25.70;1.70;;;;;;4919719;29;20626;-83
2023/08/20 08:55:07;;;;;;;11.00;2.10;;;25.80;1.00;;;;;;4923855;29;20256;-83
2023/08/20 08:57:37;;;;;;;4.00;1.80;;;25.70;1.00;;;;;;4925969;29;20618;-83
2023/08/20 09:00:05;;;;;;;4.27;1.70;;;25.50;1.00;;;;;;4925358;29;20196;-83
2023/08/20 09:02:33;;;;;;;3.63;1.63;;;25.10;1.00;;;;;;4926802;29;20203;-85
2023/08/20 09:05:00;;;;;;;3.77;1.33;;;25.00;1.00;;;;;;4923992;29;20177;-82
2023/08/20 09:07:27;;;;;;;3.50;1.40;;;24.90;1.00;;;;;;4937207;29;20181;-91
2023/08/20 09:09:59;;;;;;;4.47;1.47;;;24.90;1.00;;;;;;4922723;29;20181;-84
2023/08/20 09:12:27;;;;;;;3.78;1.27;;;24.90;1.00;;;;;;4927422;29;20187;-82
2023/08/20 09:14:57;;;;;;;4.55;1.50;;;25.00;1.00;;;;;;4925445;29;20185;-85
2023/08/20 09:17:26;;;;;;;4.60;1.30;;;25.20;1.00;;;;;;4933147;29;20430;-85
2023/08/20 09:19:56;;;;;;;5.43;1.67;;;25.20;99.90;;;;;;4921869;29;20208;-89
2023/08/20 09:22:26;;;;;;;4.23;1.60;;;25.30;99.90;;;;;;4933241;29;20678;-88
2023/08/20 09:24:54;;;;;;;4.80;1.30;;;25.30;99.90;;;;;;4935648;29;20674;-87
2023/08/20 09:27:42;;;;;;;4.43;1.20;;;25.30;99.90;;;;;;4923000;29;20173;-84
2023/08/20 09:30:08;;;;;;;5.20;1.90;;;25.40;99.90;;;;;;4932428;29;20626;-86
2023/08/20 09:32:34;;;;;;;4.20;2.53;;;25.40;97.50;;;;;;4928785;29;20176;-84
2023/08/20 09:35:00;;;;;;;6.20;1.67;;;25.40;82.70;;;;;;4931311;29;20621;-84
2023/08/20 09:37:27;;;;;;;2.93;1.03;;;25.40;1.00;;;;;;4936972;29;20238;-92
2023/08/20 09:40:10;;;;;;;4.87;1.13;;;25.70;1.00;;;;;;4944890;29;20224;-85
2023/08/20 09:43:01;;;;;;;4.03;1.43;;;26.00;99.90;;;;;;4948475;29;20173;-85
2023/08/20 09:45:28;;;;;;;3.60;1.20;;;25.70;1.00;;;;;;4928897;29;20177;-89
2023/08/20 09:48:00;;;;;;;3.53;1.03;;;25.60;83.40;;;;;;4930224;29;20602;-90
2023/08/20 09:50:26;;;;;;;3.90;1.33;;;25.70;1.00;;;;;;4926467;29;20177;-89
2023/08/20 09:53:10;;;;;;;3.72;1.13;;;25.70;1.00;;;;;;4924406;29;20335;-84
2023/08/20 09:55:41;;;;;;;4.50;1.20;;;25.80;99.90;;;;;;4923743;29;20187;-81
2023/08/20 09:58:10;;;;;;;3.73;1.37;;;25.70;99.90;;;;;;4939843;29;20212;-85
2023/08/20 10:00:55;;;;;;;3.33;1.20;;;25.70;1.00;;;;;;4924010;29;20220;-86
2023/08/20 10:03:23;;;;;;;3.63;1.60;;;26.00;1.00;;;;;;4930094;29;20260;-82
2023/08/20 10:05:50;;;;;;;4.83;1.80;;;26.00;99.90;;;;;;4917332;29;20193;-84
2023/08/20 10:08:17;;;;;;;3.78;1.60;;;26.10;99.90;;;;;;4940445;29;20205;-86
2023/08/20 10:10:44;;;;;;;2.50;1.42;;;26.00;99.90;;;;;;4929510;29;20189;-85
2023/08/20 10:13:09;;;;;;;3.63;1.50;;;25.90;99.90;;;;;;4933360;29;20212;-80
2023/08/20 10:15:37;;;;;;;3.42;1.20;;;26.00;1.00;;;;;;4930828;29;20576;-85
2023/08/20 10:18:04;;;;;;;5.50;1.83;;;26.20;1.00;;;;;;4924996;29;20201;-86
2023/08/20 10:20:30;;;;;;;4.53;1.83;;;26.30;99.90;;;;;;4916814;29;20223;-85
2023/08/20 10:23:00;;;;;;;3.47;1.48;;;26.20;1.00;;;;;;4919748;29;20645;-85
2023/08/20 10:25:26;;;;;;;5.40;1.60;;;26.20;1.00;;;;;;4935285;29;20260;-82
2023/08/20 10:27:53;;;;;;;4.67;1.43;;;26.10;1.00;;;;;;4933078;29;20598;-86
2023/08/20 10:30:25;;;;;;;5.78;1.70;;;26.20;1.00;;;;;;4932343;29;20192;-84
2023/08/20 10:32:51;;;;;;;3.28;1.67;;;26.30;1.00;;;;;;4917641;29;20336;-85
2023/08/20 10:35:46;;;;;;;5.57;1.48;;;26.20;1.00;;;;;;4926567;29;20601;-85
2023/08/20 10:38:16;;;;;;;4.93;1.50;;;26.20;1.00;;;;;;4914963;29;20286;-87
2023/08/20 10:40:58;;;;;;;4.40;1.67;;;26.30;1.00;;;;;;4923299;29;20271;-83
2023/08/20 10:43:32;;;;;;;5.18;1.90;;;26.60;1.00;;;;;;4930420;29;20595;-86
2023/08/20 10:46:04;;;;;;;4.05;2.00;;;26.80;1.00;;;;;;4922247;29;20172;-84
2023/08/20 10:48:32;;;;;;;4.32;1.63;;;27.10;1.00;;;;;;4926099;29;20661;-84
2023/08/20 10:51:00;;;;;;;5.90;1.98;;;27.20;14.70;;;;;;4946860;29;20189;-87
2023/08/20 10:53:25;;;;;;;4.47;1.40;;;27.20;99.90;;;;;;4919367;29;20592;-84
2023/08/20 10:56:06;;;;;;;3.70;1.17;;;27.30;1.00;;;;;;4929225;29;20185;-84
2023/08/20 10:58:32;;;;;;;1.85;1.00;;;27.20;1.00;;;;;;4924329;29;20177;-83
2023/08/20 11:01:21;;;;;;;4.53;1.42;;;26.80;99.90;;;;;;4934250;29;20748;-85
2023/08/20 11:03:49;;;;;;;5.05;1.38;;;26.70;99.90;;;;;;4931846;29;20244;-86
2023/08/20 11:06:16;;;;;;;4.78;1.55;;;26.90;99.90;;;;;;4928330;29;20264;-86
2023/08/20 11:08:43;;;;;;;6.15;1.70;;;27.00;99.90;;;;;;4921747;29;20632;-82
2023/08/20 11:11:09;;;;;;;5.00;1.30;;;27.10;1.00;;;;;;4933878;29;20208;-84
2023/08/20 11:13:35;;;;;;;3.37;1.40;;;27.00;99.90;;;;;;4927208;29;20192;-86
2023/08/20 11:16:05;;;;;;;4.30;1.80;;;26.90;99.90;;;;;;4934639;29;20215;-84
2023/08/20 11:18:33;;;;;;;3.37;1.33;;;26.80;1.00;;;;;;4934633;29;20256;-83
2023/08/20 11:20:59;;;;;;;5.90;1.80;;;26.80;1.00;;;;;;4920501;29;20220;-86
2023/08/20 11:23:25;;;;;;;4.20;1.27;;;26.90;99.90;;;;;;4916658;29;20181;-82
2023/08/20 11:25:51;;;;;;;3.85;1.40;;;27.20;99.90;;;;;;4934152;29;20511;-81
2023/08/20 11:28:17;;;;;;;3.10;1.15;;;27.30;1.00;;;;;;4919933;29;20203;-83
2023/08/20 11:30:43;;;;;;;4.35;1.25;;;27.10;1.00;;;;;;4927549;29;20223;-79
2023/08/20 11:33:09;;;;;;;3.65;1.30;;;26.90;99.90;;;;;;4933975;29;20240;-83
2023/08/20 11:35:35;;;;;;;2.72;1.15;;;27.10;1.00;;;;;;4933859;29;20167;-81
2023/08/20 11:38:03;;;;;;;3.95;1.33;;;27.20;99.90;;;;;;4934351;29;20184;-82
2023/08/20 11:40:29;;;;;;;4.57;1.20;;;27.20;99.90;;;;;;4933236;29;20248;-80
2023/08/20 11:42:55;;;;;;;4.10;1.60;;;27.30;99.90;;;;;;4933219;29;20208;-81
2023/08/20 11:45:21;;;;;;;5.47;1.80;;;27.40;99.90;;;;;;4934161;29;20188;-81
2023/08/20 11:47:47;;;;;;;3.67;1.10;;;27.30;99.90;;;;;;4935550;29;20188;-90
2023/08/20 11:50:13;;;;;;;3.22;1.52;;;27.30;99.90;;;;;;4925096;29;20185;-89
2023/08/20 11:52:39;;;;;;;3.75;1.23;;;27.30;99.90;;;;;;4934012;29;20411;-87
2023/08/20 11:55:06;;;;;;;4.13;1.50;;;27.30;99.90;;;;;;4935143;29;20265;-90
2023/08/20 11:57:32;;;;;;;4.53;1.52;;;27.20;99.90;;;;;;4923558;29;20184;-90
2023/08/20 12:00:04;;;;;;;3.10;1.30;;;27.30;1.00;;;;;;4922342;29;20211;-88
2023/08/20 12:02:30;;;;;;;3.97;1.20;;;27.30;99.90;;;;;;4930441;29;20260;-89
2023/08/20 12:04:59;;;;;;;3.40;1.35;;;27.50;99.90;;;;;;4925717;29;20200;-87
2023/08/20 12:07:28;;;;;;;2.55;1.40;;;27.70;1.00;;;;;;4925119;29;20185;-88
2023/08/20 12:09:55;;;;;;;3.35;1.30;;;28.00;1.00;;;;;;4919490;29;20268;-89
2023/08/20 12:12:21;;;;;;;6.78;2.15;;;28.00;99.90;;;;;;4925966;29;20177;-88
2023/08/20 12:14:47;;;;;;;3.72;1.42;;;27.80;94.00;;;;;;4920049;29;20195;-88
2023/08/20 12:17:19;;;;;;;4.70;1.40;;;27.70;1.00;;;;;;4922541;29;20223;-88
2023/08/20 12:19:46;;;;;;;5.28;1.50;;;27.70;1.00;;;;;;4928747;29;20564;-88
2023/08/20 12:22:12;;;;;;;5.53;2.42;;;27.60;1.00;;;;;;4926203;29;20192;-89
2023/08/20 12:24:38;;;;;;;6.55;2.15;;;27.50;1.00;;;;;;4921952;29;20173;-88
2023/08/20 12:27:04;;;;;;;6.13;1.30;;;27.30;1.00;;;;;;4926721;29;20386;-88
2023/08/20 12:29:29;;;;;;;4.05;1.48;;;27.30;9.70;;;;;;4929068;29;20758;-88
2023/08/20 12:31:55;;;;;;;4.72;1.60;;;27.30;82.20;;;;;;4929354;29;20181;-88
2023/08/20 12:34:21;;;;;;;4.43;1.50;;;27.60;1.00;;;;;;4925533;29;20180;-88
2023/08/20 12:36:49;;;;;;;5.70;2.03;;;27.50;1.00;;;;;;4922583;29;20243;-88
2023/08/20 12:39:15;;;;;;;5.30;2.60;;;27.60;1.00;;;;;;4926001;29;20192;-88
2023/08/20 12:41:41;;;;;;;4.00;1.40;;;27.60;99.90;;;;;;4929028;29;20231;-90
2023/08/20 12:44:07;;;;;;;4.03;1.70;;;27.50;99.90;;;;;;4923995;29;20255;-89
2023/08/20 12:46:33;;;;;;;5.50;1.83;;;27.50;99.90;;;;;;4925849;29;20219;-85
2023/08/20 12:48:59;;;;;;;5.45;1.58;;;27.60;99.90;;;;;;4929061;29;20281;-86